Terminal Aerodrome Forecast
Issued by NWS

Home | Current Version | Previous Version | Text Only | Print | Product List | Glossary On
Versions: 1 2 3 4 5 6 7 8 9 10 11 12 13 14 15 16 17 18 19 20 21 22 23 24 25 26 27 28 29 30 31
000
FTUS45 KBOU 060413 AAF
TAFBJC
TAF AMD
KBJC 060413Z 0604/0624 29012KT P6SM FEW080 BKN100
     FM060600 35010KT P6SM SCT060 BKN090
     FM060700 03006KT P6SM SCT050 BKN100
     FM061200 12006KT P6SM BKN050 BKN100
     FM061800 09012KT P6SM SCT050 BKN100
     FM062100 10012KT P6SM SCT025 OVC050 PROB30 0621/0624 2SM -SN BR
      BKN020=

USA.gov is the U.S. government's official web portal to all federal, state and local government web resources and services.